Flight Information

DEPARTURE
BURBANK, CA
Elevation:
778
Runways:
15/33 - 6886x150 - ASPH-CONC-E
8/26 - 5802x150 - ASPH-CONC-E
Active PE Departure:
8 - 15
Current PE ATIS:
O
Altimeter:
30.00
Remarks:
LAND AND HOLD SHORT OPERATIONS IN EFFECT FOR NON TURBO JET AIRCRAFT LANDING RUNWAY 1 5. 4250 FEET AVAILABLE. V F R DEPARTURES CONTACT CLEARANCE DELIVERY, ADVISE ON COURSE HEADING, ALTITUDE, AND IF FLIGHT FOLLOWING IS REQUESTED.
ATIS:
135.125 818-843-6633
Clearance Delivery:
118
Ground:
123.9
Tower:
BURBANK TOWER 118.7 132.325 (Helicopters)
DESTINATION
,
Elevation:
TPA:
1000 (est.)


6787.7 NM73° True-14° Var59° HDG

Flight Plan:
(click to file on line)

1. Type
2. Aircraft Identification
3. Aircraft Type / Special Equipment
4. True Airspeed
kts
5. Departure Airport
(ICAO code)
6. Arriving Airport
(ICAO code)
7. Cruising Altitude
ft
8. Alternate Airport
(ICAO code)
9. Route of Flight
10. Remarks


00:00:00 Departure ATIS: Destination ATIS:

Clearance Limit:
Route:
Altitude: Expect in minutes
Frequency:
Transponder: (7500 Hijack / 7600 Lost Comms / 7700 Emergency)


KBUR 101653Z 15004KT 10SM CLR 24/14 A3000 RMK AO2 SLP148 T02440144
Time: 2020-07-10T16:53:00Z
1594400556
Winds: 150 @ 4 kts
Visibility: 10.0 sm
Clouds (AGL): CLR
Temperature: 24.4 C
Dew Point: 14.4 C
Pressure: 30.0 in Hgbr


Notes:

Data extracted from FAA Digital Chart Supplement. Effective: 0901Z Thursday, May 21, 2020 to 0901Z Thursday, Jul 16, 2020
Current ATIS data is provided courtisy of PilotEdge.